Time;durP1;ratioP1;P1;durP2;ratioP2;P2;SDS_P1;SDS_P2;PMS_P1;PMS_P2;Temp;Humidity;BMP_temperature;BMP_pressure;BME280_temperature;BME280_humidity;BME280_pressure;Samples;Min_cycle;Max_cycle;Signal;HPM_P1;HPM_P2
2022/09/17 00:04:10;;;;;;;0.52;0.20;;;17.90;56.10;20.00;93568.00;;;;10523058;27;45874;-60
2022/09/17 00:09:31;;;;;;;0.25;0.25;;;17.90;56.10;20.00;93570.00;;;;10517231;27;45723;-59
2022/09/17 00:14:51;;;;;;;1.25;0.20;;;17.90;56.00;20.00;93575.00;;;;10517197;27;45179;-59
2022/09/17 00:20:13;;;;;;;0.17;0.10;;;17.80;55.90;20.00;93574.00;;;;10517247;27;45165;-60
2022/09/17 00:25:34;;;;;;;0.10;0.10;;;17.90;55.90;19.90;93575.00;;;;10529907;27;45249;-59
2022/09/17 00:30:54;;;;;;;0.90;0.20;;;17.80;55.80;19.90;93556.00;;;;10556989;27;45349;-59
2022/09/17 00:36:19;;;;;;;0.32;0.05;;;17.70;55.60;20.00;93568.00;;;;10522695;27;45182;-59
2022/09/17 00:41:40;;;;;;;0.20;0.15;;;17.80;55.80;19.90;93539.00;;;;10513800;27;45215;-59
2022/09/17 00:47:00;;;;;;;0.28;0.10;;;17.80;55.60;19.90;93548.00;;;;10542044;27;45295;-60
2022/09/17 00:52:29;;;;;;;0.43;0.10;;;17.80;55.50;19.90;93550.00;;;;10555833;27;45256;-59
2022/09/17 00:57:54;;;;;;;0.17;0.10;;;17.80;55.50;19.90;93558.00;;;;10542262;27;45193;-59
2022/09/17 01:03:15;;;;;;;0.13;0.10;;;17.80;55.50;19.90;93564.00;;;;10519516;27;45222;-59
2022/09/17 01:08:51;;;;;;;0.85;0.20;;;17.80;55.40;19.90;93561.00;;;;10512995;27;45270;-60
2022/09/17 01:14:29;;;;;;;0.20;0.10;;;17.80;55.20;19.90;93576.00;;;;10513383;27;45280;-59
2022/09/17 01:20:21;;;;;;;2.03;0.10;;;17.80;55.20;19.90;93583.00;;;;10512687;27;45191;-60
2022/09/17 01:25:58;;;;;;;0.28;0.10;;;17.80;55.80;19.90;93585.00;;;;10526665;27;45274;-59
2022/09/17 01:31:42;;;;;;;0.20;0.10;;;17.80;55.20;19.90;93599.00;;;;10519088;27;1065565;-59
2022/09/17 01:37:13;;;;;;;0.00;0.00;;;17.80;55.20;19.90;93612.00;;;;10537352;27;45791;-60
2022/09/17 01:42:45;;;;;;;0.13;0.10;;;17.80;55.00;19.90;93586.00;;;;10514425;27;45913;-60
2022/09/17 01:48:12;;;;;;;0.43;0.00;;;17.80;55.00;19.90;93590.00;;;;10513828;27;45189;-60
2022/09/17 01:53:45;;;;;;;0.20;0.10;;;17.80;54.90;19.90;93588.00;;;;10543817;27;45362;-60
2022/09/17 01:59:12;;;;;;;0.90;0.10;;;17.80;55.00;19.80;93605.00;;;;10555103;27;45757;-59
2022/09/17 02:04:38;;;;;;;0.35;0.10;;;17.70;54.80;19.90;93597.00;;;;10555045;27;45161;-60
2022/09/17 02:10:04;;;;;;;0.17;0.10;;;17.80;54.90;19.80;93586.00;;;;10556053;27;45265;-60
2022/09/17 02:15:28;;;;;;;0.10;0.05;;;17.80;54.80;19.80;93588.00;;;;10551568;27;45792;-60
2022/09/17 02:20:56;;;;;;;0.00;0.00;;;17.70;54.70;19.80;93583.00;;;;10514052;27;45499;-59
2022/09/17 02:26:21;;;;;;;0.20;0.10;;;17.70;54.70;19.80;93587.00;;;;10531414;27;45254;-59
2022/09/17 02:31:41;;;;;;;0.20;0.10;;;17.70;54.60;19.80;93582.00;;;;10556116;27;45179;-60
2022/09/17 02:37:04;;;;;;;0.45;0.10;;;17.70;54.60;19.80;93586.00;;;;10539681;27;45292;-59
2022/09/17 02:42:37;;;;;;;0.20;0.10;;;17.70;54.50;19.80;93579.00;;;;10512425;27;45106;-60
2022/09/17 02:48:17;;;;;;;0.00;0.00;;;17.70;54.50;19.80;93566.00;;;;10511803;27;45298;-60
2022/09/17 02:53:51;;;;;;;0.10;0.10;;;17.70;54.40;19.80;93575.00;;;;10541973;27;45249;-60
2022/09/17 02:59:20;;;;;;;0.25;0.10;;;17.70;54.50;19.80;93584.00;;;;10553600;27;45933;-60
2022/09/17 03:04:42;;;;;;;0.20;0.10;;;17.70;54.50;19.80;93583.00;;;;10553092;27;45225;-60
2022/09/17 03:10:05;;;;;;;0.40;0.10;;;17.70;54.40;19.80;93582.00;;;;10553969;27;45720;-60
2022/09/17 03:15:27;;;;;;;0.30;0.10;;;17.70;54.30;19.80;93601.00;;;;10536198;27;45278;-60
2022/09/17 03:20:47;;;;;;;0.57;0.05;;;17.70;54.30;19.80;93607.00;;;;10510643;27;45293;-60
2022/09/17 03:26:09;;;;;;;0.40;0.10;;;17.70;55.00;19.80;93612.00;;;;10529363;27;45148;-60
2022/09/17 03:31:29;;;;;;;0.30;0.10;;;17.60;54.20;19.80;93619.00;;;;10553680;27;45170;-59
2022/09/17 03:36:50;;;;;;;0.30;0.10;;;17.70;54.10;19.80;93609.00;;;;10513713;27;45230;-60
2022/09/17 03:42:12;;;;;;;0.28;0.20;;;17.70;54.10;19.80;93607.00;;;;10540942;27;45779;-60
2022/09/17 03:47:32;;;;;;;0.10;0.08;;;17.60;54.10;19.70;93597.00;;;;10552556;27;45443;-60
2022/09/17 03:52:53;;;;;;;0.00;0.00;;;17.60;54.00;19.80;93615.00;;;;10553190;27;45345;-60
2022/09/17 03:58:15;;;;;;;0.28;0.10;;;17.60;54.00;19.70;93610.00;;;;10553355;27;45414;-60
2022/09/17 04:03:35;;;;;;;0.00;0.00;;;17.60;53.90;19.70;93627.00;;;;10551701;27;45846;-59
2022/09/17 04:08:56;;;;;;;0.00;0.00;;;17.60;53.90;19.70;93623.00;;;;10551797;27;45110;-61
2022/09/17 04:14:18;;;;;;;0.03;0.00;;;17.60;53.90;19.70;93633.00;;;;10542825;27;45664;-60
2022/09/17 04:19:39;;;;;;;0.85;0.10;;;17.60;53.90;19.70;93627.00;;;;10512653;27;45245;-60
2022/09/17 04:24:59;;;;;;;0.22;0.10;;;17.60;53.80;19.70;93630.00;;;;10525166;27;45808;-60
2022/09/17 04:30:21;;;;;;;0.52;0.10;;;17.60;53.80;19.70;93637.00;;;;10558631;27;45169;-60
2022/09/17 04:35:42;;;;;;;0.20;0.17;;;17.60;53.70;19.70;93622.00;;;;10528758;27;45484;-60
2022/09/17 04:41:02;;;;;;;0.00;0.00;;;17.60;53.70;19.70;93648.00;;;;10516409;27;45243;-60
2022/09/17 04:46:24;;;;;;;0.10;0.05;;;17.60;53.60;19.70;93635.00;;;;10515813;27;45300;-59
2022/09/17 04:51:45;;;;;;;0.40;0.10;;;17.60;53.60;19.70;93651.00;;;;10529585;27;45496;-60
2022/09/17 04:57:05;;;;;;;0.45;0.10;;;17.60;53.70;19.70;93655.00;;;;10524204;27;45158;-60
2022/09/17 05:02:28;;;;;;;0.45;0.00;;;17.60;53.60;19.70;93669.00;;;;10516328;27;45853;-60
2022/09/17 05:07:48;;;;;;;0.28;0.08;;;17.60;53.50;19.70;93664.00;;;;10515397;27;45192;-59
2022/09/17 05:13:09;;;;;;;0.10;0.10;;;17.60;53.60;19.70;93657.00;;;;10515130;27;45870;-60
2022/09/17 05:18:31;;;;;;;0.38;0.00;;;17.60;53.60;19.70;93668.00;;;;10514343;27;45196;-59
2022/09/17 05:23:51;;;;;;;0.25;0.10;;;17.60;53.70;19.70;93671.00;;;;10515850;27;45182;-59
2022/09/17 05:29:12;;;;;;;0.20;0.00;;;17.60;53.70;19.70;93658.00;;;;10542545;27;45184;-59
2022/09/17 05:34:34;;;;;;;1.13;0.10;;;17.50;53.40;19.70;93665.00;;;;10537100;27;45487;-60
2022/09/17 05:39:55;;;;;;;0.45;0.10;;;17.60;53.50;19.70;93673.00;;;;10514246;27;45235;-60
2022/09/17 05:45:15;;;;;;;0.10;0.10;;;17.60;53.40;19.70;93701.00;;;;10513819;27;45845;-58
2022/09/17 05:50:37;;;;;;;0.15;0.13;;;17.50;53.40;19.70;93693.00;;;;10519360;27;45468;-59
2022/09/17 05:55:58;;;;;;;0.32;0.00;;;17.50;53.30;19.60;93689.00;;;;10542490;27;45751;-59
2022/09/17 06:01:19;;;;;;;0.40;0.00;;;17.50;53.40;19.70;93706.00;;;;10528589;27;45272;-59
2022/09/17 06:06:41;;;;;;;0.00;0.00;;;17.50;53.20;19.70;93713.00;;;;10514334;28;45719;-59
2022/09/17 06:12:02;;;;;;;0.17;0.00;;;17.50;53.30;19.60;93703.00;;;;10514865;27;45544;-60
2022/09/17 06:17:23;;;;;;;0.00;0.00;;;17.50;53.10;19.70;93729.00;;;;10513709;28;45230;-59
2022/09/17 06:22:45;;;;;;;0.00;0.00;;;17.50;53.20;19.60;93723.00;;;;10541925;27;45239;-60
2022/09/17 06:28:06;;;;;;;0.15;0.00;;;17.50;53.20;19.70;93743.00;;;;10540240;27;45873;-59
2022/09/17 06:33:27;;;;;;;0.35;0.10;;;17.50;53.20;19.60;93723.00;;;;10525329;27;45770;-60
2022/09/17 06:38:48;;;;;;;0.15;0.10;;;17.50;53.10;19.60;93733.00;;;;10511981;27;45626;-59
2022/09/17 06:44:09;;;;;;;0.00;0.00;;;17.50;53.20;19.60;93743.00;;;;10511670;27;45740;-60
2022/09/17 06:49:30;;;;;;;0.00;0.00;;;17.50;53.20;19.70;93742.00;;;;10510325;27;45234;-59
2022/09/17 06:54:51;;;;;;;0.30;0.10;;;17.60;53.70;19.70;93739.00;;;;10534772;27;45899;-60
2022/09/17 07:00:14;;;;;;;0.03;0.03;;;17.60;53.10;19.70;93732.00;;;;10512012;27;45184;-60
2022/09/17 07:05:34;;;;;;;0.38;0.00;;;17.60;53.00;19.70;93744.00;;;;10511689;27;45283;-59
2022/09/17 07:10:57;;;;;;;0.00;0.00;;;17.50;53.00;19.70;93744.00;;;;10525008;27;45267;-59
2022/09/17 07:16:18;;;;;;;0.75;0.20;;;17.60;52.90;19.70;93752.00;;;;10511425;27;45675;-59
2022/09/17 07:21:38;;;;;;;0.52;0.00;;;17.60;53.10;19.70;93760.00;;;;10511726;27;45684;-60
2022/09/17 07:27:01;;;;;;;0.00;0.00;;;17.50;53.00;19.70;93749.00;;;;10535619;27;45878;-60
2022/09/17 07:32:22;;;;;;;0.82;0.10;;;17.50;53.00;19.70;93771.00;;;;10553985;27;45249;-59
2022/09/17 07:37:43;;;;;;;0.95;0.20;;;17.50;53.00;19.60;93783.00;;;;10525693;27;45173;-59
2022/09/17 07:43:05;;;;;;;0.47;0.20;;;17.50;50.10;19.60;93788.00;;;;10511565;27;45445;-59
2022/09/17 07:48:27;;;;;;;2.80;0.40;;;17.50;53.10;19.70;93783.00;;;;10510448;28;45120;-59
2022/09/17 07:53:50;;;;;;;0.73;0.20;;;17.60;52.10;19.60;93788.00;;;;10526613;27;45192;-59
2022/09/17 07:59:13;;;;;;;0.68;0.20;;;17.50;52.90;19.60;93791.00;;;;10547095;27;45482;-60
2022/09/17 08:04:33;;;;;;;0.22;0.15;;;17.50;52.50;19.60;93779.00;;;;10539155;27;45397;-61
2022/09/17 08:09:54;;;;;;;0.38;0.20;;;17.50;52.30;19.60;93772.00;;;;10517929;27;45231;-58
2022/09/17 08:15:16;;;;;;;1.80;0.38;;;17.50;52.10;19.60;93788.00;;;;10517675;27;45794;-60
2022/09/17 08:20:37;;;;;;;1.20;0.30;;;17.50;52.20;19.60;93769.00;;;;10518440;27;45238;-59
2022/09/17 08:25:59;;;;;;;0.77;0.10;;;17.50;52.30;19.60;93781.00;;;;10546716;27;45770;-59
2022/09/17 08:31:23;;;;;;;0.73;0.22;;;17.50;52.40;19.60;93790.00;;;;10559189;27;45302;-59
2022/09/17 08:36:44;;;;;;;0.50;0.20;;;17.50;52.60;19.60;93797.00;;;;10520047;27;45952;-60
2022/09/17 08:42:14;;;;;;;0.93;0.10;;;17.60;52.50;19.60;93811.00;;;;10516647;27;45170;-59
2022/09/17 08:47:39;;;;;;;0.52;0.10;;;17.50;52.30;19.60;93818.00;;;;10515956;27;45675;-60
2022/09/17 08:53:29;;;;;;;2.33;0.25;;;17.50;52.40;19.60;93827.00;;;;10522044;27;45264;-60
2022/09/17 08:59:17;;;;;;;0.40;0.10;;;17.50;52.60;19.60;93828.00;;;;10515317;27;45900;-60
2022/09/17 09:04:59;;;;;;;0.82;0.17;;;17.50;52.40;19.60;93810.00;;;;10515612;27;45264;-59
2022/09/17 09:10:24;;;;;;;0.88;0.10;;;17.50;52.50;19.70;93825.00;;;;10516082;27;45758;-60
2022/09/17 09:15:48;;;;;;;0.17;0.10;;;17.60;52.60;19.70;93825.00;;;;10515313;27;45427;-62
2022/09/17 09:21:25;;;;;;;2.60;0.30;;;17.60;52.90;19.70;93829.00;;;;10546400;27;45897;-62
2022/09/17 09:26:49;;;;;;;0.30;0.20;;;17.60;52.90;19.70;93824.00;;;;10534729;27;45501;-62
2022/09/17 09:32:26;;;;;;;1.92;0.20;;;17.60;52.90;19.70;93828.00;;;;10539149;27;45696;-62
2022/09/17 09:37:56;;;;;;;0.75;0.10;;;17.60;52.90;19.70;93826.00;;;;10513884;27;45345;-62
2022/09/17 09:43:21;;;;;;;1.52;0.20;;;17.60;53.00;19.70;93840.00;;;;10509206;27;45222;-61
2022/09/17 09:48:53;;;;;;;1.15;0.20;;;17.60;53.00;19.70;93826.00;;;;10543185;27;45471;-62
2022/09/17 09:54:36;;;;;;;1.98;0.30;;;17.60;52.90;19.70;93849.00;;;;10520601;27;45206;-62
2022/09/17 10:00:27;;;;;;;1.38;0.20;;;17.60;53.00;19.70;93838.00;;;;10543407;27;45747;-62
2022/09/17 10:05:58;;;;;;;1.08;0.30;;;17.60;53.10;19.70;93844.00;;;;10557066;27;45792;-62
2022/09/17 10:11:22;;;;;;;0.85;0.32;;;17.60;53.10;19.70;93846.00;;;;10555377;27;45300;-60
2022/09/17 10:16:43;;;;;;;1.70;0.28;;;17.60;53.30;19.70;93846.00;;;;10539768;27;45213;-62
2022/09/17 10:22:26;;;;;;;0.98;0.20;;;17.60;53.40;19.70;93848.00;;;;10513147;27;45729;-62
2022/09/17 10:27:49;;;;;;;1.35;0.55;;;17.60;53.40;19.70;93851.00;;;;10543983;27;45210;-64
2022/09/17 10:33:21;;;;;;;1.33;0.17;;;17.60;53.50;19.70;93843.00;;;;10539888;27;45419;-61
2022/09/17 10:38:44;;;;;;;1.00;0.20;;;17.60;53.50;19.70;93846.00;;;;10508783;27;45268;-61
2022/09/17 10:44:18;;;;;;;0.82;0.20;;;17.70;53.70;19.70;93855.00;;;;10512410;27;45269;-62
2022/09/17 10:49:42;;;;;;;1.25;0.30;;;17.70;53.80;19.70;93876.00;;;;10522401;27;45187;-61
2022/09/17 10:55:17;;;;;;;1.30;0.40;;;17.70;53.80;19.80;93873.00;;;;10511722;27;45473;-62
2022/09/17 11:00:49;;;;;;;0.95;0.30;;;17.70;53.90;19.80;93864.00;;;;10512334;27;45293;-61
2022/09/17 11:06:39;;;;;;;1.77;0.45;;;17.70;53.90;19.80;93853.00;;;;10522394;27;45256;-61
2022/09/17 11:12:17;;;;;;;2.22;0.40;;;17.70;54.00;19.70;93863.00;;;;10554531;27;45367;-62
2022/09/17 11:18:05;;;;;;;2.78;0.40;;;17.70;54.10;19.80;93873.00;;;;10530359;27;45134;-61
2022/09/17 11:24:06;;;;;;;1.70;0.20;;;17.70;54.00;19.80;93872.00;;;;10511197;27;45056;-62
2022/09/17 11:30:01;;;;;;;1.35;0.32;;;17.70;54.10;19.70;93878.00;;;;10517356;27;45884;-62
2022/09/17 11:35:27;;;;;;;2.00;0.50;;;17.70;54.10;19.80;93860.00;;;;10531979;27;45161;-61
2022/09/17 11:40:52;;;;;;;1.67;0.30;;;17.70;54.20;19.80;93859.00;;;;10532363;27;45592;-63
2022/09/17 11:46:19;;;;;;;0.88;0.20;;;17.70;54.20;19.80;93873.00;;;;10518166;27;45234;-62
2022/09/17 11:51:45;;;;;;;1.13;0.30;;;17.70;54.20;19.80;93863.00;;;;10517684;27;45499;-62
2022/09/17 11:57:12;;;;;;;2.57;0.30;;;17.70;54.20;19.80;93875.00;;;;10517567;27;45093;-62
2022/09/17 12:02:46;;;;;;;2.88;0.40;;;17.70;54.10;19.80;93864.00;;;;10517759;27;45889;-62
2022/09/17 12:08:16;;;;;;;0.52;0.20;;;17.70;54.20;19.80;93865.00;;;;10547175;27;45196;-62
2022/09/17 12:13:44;;;;;;;1.70;0.30;;;17.70;54.20;19.80;93852.00;;;;10560165;27;45913;-62
2022/09/17 12:19:14;;;;;;;1.67;0.40;;;17.70;54.20;19.90;93846.00;;;;10523502;27;45226;-62
2022/09/17 12:24:35;;;;;;;0.77;0.20;;;17.80;54.20;19.90;93841.00;;;;10522300;27;45175;-60
2022/09/17 12:30:12;;;;;;;0.80;0.20;;;17.80;54.20;19.90;93826.00;;;;10559237;27;45711;-61
2022/09/17 12:36:12;;;;;;;2.20;0.30;;;17.80;54.20;19.90;93842.00;;;;10530099;27;45289;-61
2022/09/17 12:41:46;;;;;;;2.67;0.40;;;17.80;54.10;19.90;93853.00;;;;10520517;27;45820;-61
2022/09/17 12:47:33;;;;;;;1.35;0.30;;;17.80;54.20;19.90;93845.00;;;;10558999;27;45236;-62
2022/09/17 12:53:12;;;;;;;2.10;0.30;;;17.80;54.30;19.90;93841.00;;;;10559461;27;45219;-61
2022/09/17 12:58:58;;;;;;;3.17;0.38;;;17.80;54.30;19.90;93859.00;;;;10557866;27;45236;-61
2022/09/17 13:04:46;;;;;;;4.82;0.35;;;17.80;54.30;19.90;93850.00;;;;10560453;27;45441;-61
2022/09/17 13:10:33;;;;;;;0.30;0.10;;;17.80;54.20;19.90;93870.00;;;;10558935;27;45171;-61
2022/09/17 13:16:09;;;;;;;0.63;0.13;;;17.80;54.30;19.90;93859.00;;;;10550393;27;45944;-61
2022/09/17 13:21:39;;;;;;;1.15;0.25;;;17.80;54.40;19.90;93861.00;;;;10516389;27;45128;-61
2022/09/17 13:27:02;;;;;;;1.00;0.20;;;17.80;54.40;19.90;93854.00;;;;10534789;27;45138;-61
2022/09/17 13:32:47;;;;;;;0.30;0.10;;;17.80;54.40;19.90;93875.00;;;;10545636;27;45209;-61
2022/09/17 13:38:08;;;;;;;2.55;0.25;;;17.80;54.10;19.80;93886.00;;;;10533624;27;45688;-58
2022/09/17 13:43:29;;;;;;;1.80;0.28;;;17.80;54.20;19.90;93868.00;;;;10554210;27;45553;-59
2022/09/17 13:48:57;;;;;;;2.00;0.20;;;17.90;54.50;20.00;93882.00;;;;10552235;27;45186;-60
2022/09/17 13:54:22;;;;;;;0.70;0.20;;;17.90;54.40;20.00;93886.00;;;;10549149;27;45209;-61
2022/09/17 13:59:55;;;;;;;0.52;0.20;;;18.00;54.30;20.10;93878.00;;;;10555464;27;45212;-59
2022/09/17 14:05:41;;;;;;;2.72;0.20;;;18.00;54.40;20.10;93872.00;;;;10555298;27;45161;-59
2022/09/17 14:11:34;;;;;;;3.45;0.73;;;18.10;54.20;20.20;93855.00;;;;10538149;27;45397;-61
2022/09/17 14:16:55;;;;;;;1.50;0.10;;;18.10;54.30;20.30;93867.00;;;;10533123;27;45280;-62
2022/09/17 14:22:24;;;;;;;0.82;0.30;;;18.20;54.10;20.30;93853.00;;;;10539069;27;46380;-61
2022/09/17 14:27:54;;;;;;;1.95;0.38;;;18.30;54.20;20.40;93853.00;;;;10543678;27;45782;-60
2022/09/17 14:33:18;;;;;;;0.77;0.10;;;18.30;54.20;20.40;93865.00;;;;10540798;27;45195;-60
2022/09/17 14:38:44;;;;;;;1.63;0.30;;;18.30;54.10;20.40;93842.00;;;;10533613;27;45314;-60
2022/09/17 14:44:10;;;;;;;0.60;0.10;;;18.40;54.10;20.50;93860.00;;;;10534212;27;45326;-61
2022/09/17 14:49:34;;;;;;;1.70;0.20;;;18.40;54.20;20.50;93839.00;;;;10534643;27;45704;-59
2022/09/17 14:55:18;;;;;;;0.77;0.17;;;18.40;53.60;20.50;93835.00;;;;10532849;27;45297;-60
2022/09/17 15:00:38;;;;;;;1.38;0.20;;;18.50;53.70;20.50;93829.00;;;;10531363;27;45127;-59
2022/09/17 15:05:59;;;;;;;1.65;0.20;;;18.50;53.70;20.60;93838.00;;;;10532694;27;45433;-58
2022/09/17 15:11:21;;;;;;;2.38;0.10;;;18.50;53.70;20.60;93849.00;;;;10512039;27;45137;-59
2022/09/17 15:16:48;;;;;;;1.67;0.13;;;18.50;53.70;20.60;93843.00;;;;10517354;27;45165;-59
2022/09/17 15:22:13;;;;;;;1.27;0.20;;;18.50;53.80;20.60;93854.00;;;;10536684;27;45225;-59
2022/09/17 15:27:38;;;;;;;1.00;0.10;;;18.50;53.50;20.60;93870.00;;;;10540760;27;45206;-59
2022/09/17 15:33:00;;;;;;;1.95;0.20;;;18.50;53.70;20.60;93874.00;;;;10530878;27;45505;-59
2022/09/17 15:38:26;;;;;;;2.20;0.30;;;18.50;53.40;20.60;93879.00;;;;10554539;27;45072;-59
2022/09/17 15:43:49;;;;;;;1.77;0.25;;;18.50;52.50;20.60;93864.00;;;;10523632;27;45226;-59
2022/09/17 15:49:30;;;;;;;0.95;0.20;;;18.60;52.90;20.70;93881.00;;;;10510230;28;45482;-58
2022/09/17 15:54:50;;;;;;;0.60;0.20;;;18.60;53.10;20.70;93868.00;;;;10526901;27;45692;-58
2022/09/17 16:00:15;;;;;;;0.30;0.10;;;18.60;52.90;20.70;93876.00;;;;10533321;27;45442;-59
2022/09/17 16:05:46;;;;;;;0.45;0.10;;;18.60;53.10;20.70;93868.00;;;;10527358;27;45348;-60
2022/09/17 16:11:07;;;;;;;0.60;0.20;;;18.70;53.20;20.70;93865.00;;;;10512813;27;45243;-59
2022/09/17 16:16:34;;;;;;;0.82;0.20;;;18.60;53.00;20.70;93881.00;;;;10543559;27;45177;-59
2022/09/17 16:21:55;;;;;;;1.00;0.20;;;18.70;53.60;20.80;93885.00;;;;10555628;27;45306;-60
2022/09/17 16:27:21;;;;;;;0.60;0.10;;;18.70;53.10;20.70;93899.00;;;;10531324;27;45718;-59
2022/09/17 16:32:43;;;;;;;0.30;0.17;;;18.70;52.80;20.80;93889.00;;;;10523574;27;45384;-60
2022/09/17 16:38:03;;;;;;;0.55;0.20;;;18.60;52.70;20.70;93901.00;;;;10517077;27;45229;-59
2022/09/17 16:43:24;;;;;;;0.55;0.10;;;18.60;52.60;20.70;93893.00;;;;10516540;27;45761;-58
2022/09/17 16:48:50;;;;;;;0.50;0.20;;;18.60;52.70;20.70;93884.00;;;;10515876;27;45865;-60
2022/09/17 16:54:10;;;;;;;0.82;0.10;;;18.60;52.90;20.80;93897.00;;;;10525074;27;45794;-59
2022/09/17 16:59:30;;;;;;;0.68;0.10;;;18.70;53.00;20.80;93886.00;;;;10516092;27;45167;-59
2022/09/17 17:04:53;;;;;;;0.55;0.10;;;18.80;53.10;20.90;93920.00;;;;10510482;28;45241;-60
2022/09/17 17:10:14;;;;;;;0.10;0.00;;;18.80;53.00;20.90;93925.00;;;;10514676;27;45215;-60
2022/09/17 17:15:34;;;;;;;0.20;0.10;;;18.80;53.10;20.90;93936.00;;;;10515276;27;45270;-60
2022/09/17 17:20:56;;;;;;;0.28;0.00;;;18.90;53.10;20.90;93902.00;;;;10518764;27;45292;-60
2022/09/17 17:26:17;;;;;;;0.20;0.10;;;18.90;53.20;21.00;93905.00;;;;10542197;27;45886;-60
2022/09/17 17:31:38;;;;;;;0.30;0.10;;;18.90;53.20;21.00;93912.00;;;;10556296;27;45399;-60
2022/09/17 17:37:00;;;;;;;0.85;0.20;;;18.90;53.20;21.00;93912.00;;;;10530906;27;45142;-60
2022/09/17 17:42:21;;;;;;;1.05;0.10;;;18.90;53.30;21.00;93925.00;;;;10515220;27;45387;-60
2022/09/17 17:47:42;;;;;;;0.85;0.20;;;19.00;53.30;21.00;93906.00;;;;10513899;28;45781;-59
2022/09/17 17:53:04;;;;;;;0.45;0.03;;;19.00;53.30;21.10;93922.00;;;;10514573;28;45209;-60
2022/09/17 17:58:25;;;;;;;0.10;0.10;;;19.00;53.30;21.10;93942.00;;;;10514164;27;45452;-59
2022/09/17 18:03:46;;;;;;;0.75;0.10;;;19.00;53.30;21.10;93942.00;;;;10514264;28;45151;-59
2022/09/17 18:09:08;;;;;;;0.68;0.05;;;19.00;53.30;21.10;93967.00;;;;10512202;28;45237;-59
2022/09/17 18:14:28;;;;;;;0.68;0.20;;;19.00;53.30;21.20;93966.00;;;;10514046;28;45215;-61
2022/09/17 18:19:50;;;;;;;0.22;0.10;;;19.10;53.40;21.20;93965.00;;;;10516718;27;45425;-59
2022/09/17 18:25:12;;;;;;;0.75;0.20;;;19.10;53.40;21.20;93988.00;;;;10539777;27;45479;-60
2022/09/17 18:30:32;;;;;;;0.47;0.00;;;19.10;53.40;21.20;93986.00;;;;10554775;27;45232;-59
2022/09/17 18:35:56;;;;;;;0.10;0.00;;;19.10;53.40;21.20;93997.00;;;;10513248;27;45464;-60
2022/09/17 18:41:18;;;;;;;0.20;0.10;;;19.10;53.40;21.20;93994.00;;;;10512698;28;45763;-60
2022/09/17 18:46:39;;;;;;;0.25;0.10;;;19.10;53.40;21.30;93998.00;;;;10512535;28;45809;-60
2022/09/17 18:52:00;;;;;;;0.32;0.10;;;19.20;53.40;21.30;93983.00;;;;10527945;27;45547;-60
2022/09/17 18:57:21;;;;;;;0.17;0.10;;;19.20;53.40;21.30;93994.00;;;;10511552;27;45120;-59
2022/09/17 19:02:42;;;;;;;0.10;0.00;;;19.20;53.40;21.30;94005.00;;;;10526055;27;45857;-60
2022/09/17 19:08:02;;;;;;;0.90;0.10;;;19.20;53.40;21.30;94013.00;;;;10511522;28;45353;-60
2022/09/17 19:13:25;;;;;;;0.45;0.00;;;19.20;53.40;21.40;94018.00;;;;10512554;27;45229;-59
2022/09/17 19:18:45;;;;;;;2.30;0.10;;;19.30;53.40;21.40;94020.00;;;;10515812;27;45341;-60
2022/09/17 19:24:06;;;;;;;0.20;0.10;;;19.30;53.40;21.40;94039.00;;;;10524999;27;45259;-60
2022/09/17 19:29:28;;;;;;;0.60;0.10;;;19.30;53.40;21.40;94027.00;;;;10553112;27;45319;-60
2022/09/17 19:34:49;;;;;;;0.00;0.00;;;19.30;53.40;21.40;94033.00;;;;10529780;27;45096;-60
2022/09/17 19:40:10;;;;;;;0.10;0.10;;;19.30;53.40;21.40;94052.00;;;;10511774;28;45289;-59
2022/09/17 19:45:32;;;;;;;0.10;0.00;;;19.30;53.30;21.50;94053.00;;;;10541690;27;45824;-60
2022/09/17 19:50:56;;;;;;;0.15;0.10;;;19.30;53.30;21.50;94049.00;;;;10557710;27;45106;-60
2022/09/17 19:56:20;;;;;;;1.00;0.10;;;19.30;53.40;21.50;94052.00;;;;10544152;27;45302;-60
2022/09/17 20:01:44;;;;;;;0.70;0.10;;;19.40;53.30;21.50;94064.00;;;;10536900;27;45219;-59
2022/09/17 20:07:05;;;;;;;0.10;0.00;;;19.40;53.40;21.50;94048.00;;;;10517030;28;45857;-60
2022/09/17 20:12:25;;;;;;;0.10;0.00;;;19.40;53.30;21.50;94037.00;;;;10518630;28;45692;-60
2022/09/17 20:17:47;;;;;;;0.00;0.00;;;19.40;53.30;21.50;94026.00;;;;10516802;28;45857;-60
2022/09/17 20:23:08;;;;;;;0.57;0.00;;;19.40;53.10;21.50;94026.00;;;;10516803;27;45208;-60
2022/09/17 20:28:28;;;;;;;0.05;0.00;;;19.30;53.10;21.40;94039.00;;;;10553948;27;45120;-60
2022/09/17 20:33:54;;;;;;;0.03;0.00;;;19.30;53.10;21.40;94030.00;;;;10547680;27;45349;-60
2022/09/17 20:39:15;;;;;;;0.10;0.00;;;19.20;53.10;21.30;94022.00;;;;10514725;27;45743;-60
2022/09/17 20:44:36;;;;;;;0.15;0.03;;;19.20;53.20;21.30;94035.00;;;;10511679;27;45257;-60
2022/09/17 20:49:58;;;;;;;0.05;0.05;;;19.10;53.30;21.30;94044.00;;;;10515972;27;45789;-60
2022/09/17 20:55:18;;;;;;;0.20;0.03;;;19.10;53.30;21.20;94037.00;;;;10546409;27;45205;-58
2022/09/17 21:00:41;;;;;;;0.00;0.00;;;19.00;53.30;21.20;94048.00;;;;10549007;27;45397;-60
2022/09/17 21:06:03;;;;;;;0.10;0.00;;;19.00;53.30;21.20;94058.00;;;;10517927;27;45803;-60
2022/09/17 21:11:24;;;;;;;0.10;0.10;;;19.00;53.50;21.20;94055.00;;;;10515177;27;45122;-60
2022/09/17 21:16:45;;;;;;;0.40;0.10;;;18.90;53.30;21.10;94051.00;;;;10515239;27;46120;-59
2022/09/17 21:22:07;;;;;;;0.15;0.10;;;18.90;53.40;21.10;94062.00;;;;10516040;27;45171;-60
2022/09/17 21:27:30;;;;;;;0.40;0.03;;;18.90;53.40;21.10;94057.00;;;;10543372;27;45193;-60
2022/09/17 21:32:52;;;;;;;0.00;0.00;;;18.90;53.50;21.10;94060.00;;;;10552590;27;45185;-60
2022/09/17 21:38:14;;;;;;;0.43;0.00;;;18.90;53.50;21.00;94050.00;;;;10514279;27;45218;-60
2022/09/17 21:43:36;;;;;;;0.47;0.00;;;18.80;53.40;21.00;94043.00;;;;10515030;27;45689;-60
2022/09/17 21:49:00;;;;;;;0.20;0.10;;;18.80;53.50;21.00;94058.00;;;;10514251;27;45492;-60
2022/09/17 21:54:22;;;;;;;0.00;0.00;;;18.80;53.50;21.00;94061.00;;;;10514649;27;45170;-60
2022/09/17 21:59:43;;;;;;;0.20;0.10;;;18.80;53.50;21.00;94055.00;;;;10528463;27;45672;-60
2022/09/17 22:05:05;;;;;;;0.00;0.00;;;18.80;53.40;21.00;94053.00;;;;10521982;27;45179;-60
2022/09/17 22:10:27;;;;;;;0.38;0.20;;;18.80;53.40;21.00;94060.00;;;;10513570;27;45259;-60
2022/09/17 22:15:57;;;;;;;1.80;0.05;;;18.80;53.50;21.00;94058.00;;;;10512564;27;45267;-60
2022/09/17 22:21:20;;;;;;;0.10;0.10;;;18.70;53.50;21.00;94061.00;;;;10513163;27;45260;-60
2022/09/17 22:26:45;;;;;;;0.15;0.00;;;18.70;53.40;20.90;94061.00;;;;10535921;27;46033;-60
2022/09/17 22:32:06;;;;;;;0.17;0.05;;;18.70;53.50;20.90;94049.00;;;;10555144;27;45782;-59
2022/09/17 22:37:28;;;;;;;0.25;0.00;;;18.70;53.50;20.90;94060.00;;;;10512239;28;45228;-60
2022/09/17 22:42:50;;;;;;;0.30;0.10;;;18.70;53.50;20.90;94066.00;;;;10513219;28;45250;-59
2022/09/17 22:48:10;;;;;;;0.10;0.10;;;18.70;53.50;20.90;94052.00;;;;10524393;27;45185;-60
2022/09/17 22:53:31;;;;;;;0.25;0.10;;;18.70;53.50;20.90;94057.00;;;;10555203;27;45804;-60
2022/09/17 22:58:55;;;;;;;0.68;0.10;;;18.70;53.50;20.90;94059.00;;;;10553876;27;45175;-59
2022/09/17 23:04:16;;;;;;;0.40;0.10;;;18.60;53.40;20.90;94053.00;;;;10524332;27;45782;-59
2022/09/17 23:09:36;;;;;;;0.20;0.08;;;18.70;53.50;20.90;94054.00;;;;10510821;27;45250;-59
2022/09/17 23:14:58;;;;;;;0.45;0.10;;;18.60;53.50;20.90;94047.00;;;;10511870;27;45652;-60
2022/09/17 23:20:19;;;;;;;0.43;0.10;;;18.60;53.50;20.80;94048.00;;;;10511670;27;45457;-59
2022/09/17 23:25:40;;;;;;;0.20;0.00;;;18.60;53.40;20.80;94044.00;;;;10511730;27;45166;-61
2022/09/17 23:31:08;;;;;;;0.47;0.03;;;18.60;53.60;20.80;94041.00;;;;10512512;27;45133;-60
2022/09/17 23:36:32;;;;;;;0.20;0.00;;;18.60;53.60;20.80;94046.00;;;;10516780;27;45234;-60
2022/09/17 23:41:52;;;;;;;0.10;0.10;;;18.60;53.60;20.80;94057.00;;;;10511439;27;45170;-60
2022/09/17 23:47:14;;;;;;;0.05;0.00;;;18.60;53.50;20.80;94063.00;;;;10510675;27;45445;-60
2022/09/17 23:52:34;;;;;;;0.35;0.10;;;18.60;53.60;20.80;94055.00;;;;10510839;27;45812;-60